createdAt,value
2023-05-02T00:00:04.187Z,6.76
2023-05-02T00:02:37.238Z,6.72
2023-05-02T00:05:06.680Z,6.73
2023-05-02T00:07:35.041Z,6.66
2023-05-02T00:10:03.560Z,6.50
2023-05-02T00:12:31.876Z,6.54
2023-05-02T00:15:00.518Z,6.47
2023-05-02T00:17:29.020Z,6.51
2023-05-02T00:19:59.512Z,6.55
2023-05-02T00:22:28.638Z,6.68
2023-05-02T00:24:58.675Z,6.60
2023-05-02T00:27:32.153Z,6.48
2023-05-02T00:30:01.565Z,6.34
2023-05-02T00:32:30.216Z,6.20
2023-05-02T00:35:00.189Z,6.21
2023-05-02T00:37:29.184Z,6.18
2023-05-02T00:39:57.745Z,6.06
2023-05-02T00:42:26.494Z,6.04
2023-05-02T00:44:54.877Z,6.02
2023-05-02T00:47:23.428Z,6.01
2023-05-02T00:49:52.027Z,6.02
2023-05-02T00:52:21.620Z,5.99
2023-05-02T00:54:50.230Z,5.98
2023-05-02T00:57:18.609Z,5.95
2023-05-02T00:59:47.542Z,5.94
2023-05-02T01:02:31.319Z,5.85
2023-05-02T01:05:06.994Z,5.92
2023-05-02T01:07:55.622Z,5.92
2023-05-02T01:10:31.989Z,5.86
2023-05-02T01:13:04.969Z,5.84
2023-05-02T01:15:34.783Z,5.83
2023-05-02T01:18:06.282Z,5.79
2023-05-02T01:20:39.323Z,5.86
2023-05-02T01:23:17.740Z,5.84
2023-05-02T01:26:02.614Z,5.87
2023-05-02T01:28:39.992Z,5.82
2023-05-02T01:31:10.027Z,5.77
2023-05-02T01:33:42.044Z,5.74
2023-05-02T01:36:11.020Z,5.79
2023-05-02T01:38:40.700Z,5.71
2023-05-02T01:41:10.682Z,5.70
2023-05-02T01:43:41.548Z,5.63
2023-05-02T01:46:15.588Z,5.62
2023-05-02T01:48:46.010Z,5.66
2023-05-02T01:51:16.826Z,5.73
2023-05-02T01:53:47.380Z,5.65
2023-05-02T01:56:19.227Z,5.57
2023-05-02T01:58:49.801Z,5.58
2023-05-02T02:01:20.995Z,5.58
2023-05-02T02:03:49.263Z,5.57
2023-05-02T02:06:18.742Z,5.53
2023-05-02T02:08:47.384Z,5.41
2023-05-02T02:11:19.176Z,5.42
2023-05-02T02:13:51.212Z,5.41
2023-05-02T02:16:26.385Z,5.37
2023-05-02T02:18:59.443Z,5.32
2023-05-02T02:21:30.847Z,5.29
2023-05-02T02:24:04.275Z,5.32
2023-05-02T02:26:32.795Z,5.33
2023-05-02T02:29:02.391Z,5.32
2023-05-02T02:31:36.311Z,5.30
2023-05-02T02:34:04.782Z,5.27
2023-05-02T02:36:36.995Z,5.25
2023-05-02T02:39:14.143Z,5.24
2023-05-02T02:41:49.916Z,5.19
2023-05-02T02:44:29.734Z,5.30
2023-05-02T02:47:07.786Z,5.33
2023-05-02T02:49:48.946Z,5.22
2023-05-02T02:52:25.537Z,5.28
2023-05-02T02:55:01.352Z,5.30
2023-05-02T02:57:39.035Z,5.32
2023-05-02T03:00:13.479Z,5.27
2023-05-02T03:02:44.954Z,5.29
2023-05-02T03:05:14.310Z,5.30
2023-05-02T03:07:42.922Z,5.31
2023-05-02T03:10:12.404Z,5.26
2023-05-02T03:12:41.732Z,5.29
2023-05-02T03:15:29.421Z,5.24
2023-05-02T03:17:59.616Z,5.23
2023-05-02T03:20:27.907Z,5.19
2023-05-02T03:22:56.442Z,5.14
2023-05-02T03:25:25.069Z,5.02
2023-05-02T03:27:53.223Z,5.16
2023-05-02T03:30:21.596Z,5.17
2023-05-02T03:32:49.954Z,5.13
2023-05-02T03:35:20.626Z,5.10
2023-05-02T03:37:49.012Z,5.12
2023-05-02T03:40:19.971Z,5.07
2023-05-02T03:42:48.888Z,5.09
2023-05-02T03:45:17.880Z,5.10
2023-05-02T03:47:45.978Z,5.18
2023-05-02T03:50:14.418Z,5.17
2023-05-02T03:52:44.618Z,5.15
2023-05-02T03:55:13.050Z,5.17
2023-05-02T03:57:41.616Z,5.25
2023-05-02T04:00:10.838Z,5.14
2023-05-02T04:02:39.318Z,5.25
2023-05-02T04:05:08.817Z,5.28
2023-05-02T04:07:37.072Z,5.29
2023-05-02T04:10:08.734Z,5.35
2023-05-02T04:12:37.900Z,5.35
2023-05-02T04:15:06.631Z,5.53
2023-05-02T04:17:34.839Z,5.60
2023-05-02T04:20:05.265Z,5.66
2023-05-02T04:22:34.643Z,5.87
2023-05-02T04:25:03.816Z,5.86
2023-05-02T04:27:34.249Z,5.90
2023-05-02T04:30:02.690Z,6.01
2023-05-02T04:32:31.233Z,6.20
2023-05-02T04:35:00.390Z,6.37
2023-05-02T04:37:28.834Z,6.42
2023-05-02T04:39:57.166Z,6.38
2023-05-02T04:42:25.881Z,6.43
2023-05-02T04:44:56.311Z,6.51
2023-05-02T04:47:24.809Z,6.64
2023-05-02T04:49:53.180Z,6.72
2023-05-02T04:52:21.349Z,6.95
2023-05-02T04:54:49.656Z,6.99
2023-05-02T04:57:20.396Z,6.97
2023-05-02T04:59:49.576Z,7.08
2023-05-02T05:02:19.586Z,7.07
2023-05-02T05:04:48.301Z,7.01
2023-05-02T05:07:16.749Z,7.20
2023-05-02T05:09:44.853Z,7.33
2023-05-02T05:12:13.970Z,7.41
2023-05-02T05:14:42.887Z,7.41
2023-05-02T05:17:11.316Z,7.55
2023-05-02T05:19:41.502Z,7.55
2023-05-02T05:22:10.291Z,7.63
2023-05-02T05:24:39.326Z,7.68
2023-05-02T05:27:07.927Z,7.68
2023-05-02T05:29:36.571Z,7.79
2023-05-02T05:32:05.048Z,7.86
2023-05-02T05:34:33.583Z,7.92
2023-05-02T05:37:04.568Z,7.92
2023-05-02T05:39:33.197Z,8.10
2023-05-02T05:42:02.059Z,8.22
2023-05-02T05:44:30.637Z,8.25
2023-05-02T05:46:59.117Z,8.49
2023-05-02T05:49:27.469Z,8.52
2023-05-02T05:51:56.026Z,8.50
2023-05-02T05:54:26.380Z,8.56
2023-05-02T05:56:55.236Z,8.54
2023-05-02T05:59:23.623Z,8.72
2023-05-02T06:01:52.369Z,8.83
2023-05-02T06:04:21.305Z,8.95
2023-05-02T06:06:52.187Z,8.98
2023-05-02T06:09:20.988Z,8.89
2023-05-02T06:11:51.417Z,8.80
2023-05-02T06:14:19.602Z,8.85
2023-05-02T06:16:48.095Z,8.81
2023-05-02T06:19:16.567Z,8.86
2023-05-02T06:21:45.322Z,8.90
2023-05-02T06:24:14.090Z,8.90
2023-05-02T06:26:43.027Z,8.85
2023-05-02T06:29:13.056Z,8.93
2023-05-02T06:31:41.867Z,8.83
2023-05-02T06:34:10.252Z,8.93
2023-05-02T06:36:38.721Z,9.01
2023-05-02T06:39:07.582Z,9.12
2023-05-02T06:41:36.362Z,9.09
2023-05-02T06:44:06.114Z,9.18
2023-05-02T06:46:36.821Z,9.14
2023-05-02T06:49:05.744Z,9.16
2023-05-02T06:51:34.440Z,9.15
2023-05-02T06:54:03.147Z,9.23
2023-05-02T06:56:31.541Z,9.33
2023-05-02T06:59:00.124Z,9.56
2023-05-02T07:01:28.803Z,9.65
2023-05-02T07:03:58.421Z,9.70
2023-05-02T07:06:27.482Z,9.80
2023-05-02T07:08:55.534Z,9.76
2023-05-02T07:11:24.229Z,9.68
2023-05-02T07:13:53.304Z,9.71
2023-05-02T07:16:22.213Z,9.74
2023-05-02T07:18:50.464Z,9.76
2023-05-02T07:21:20.661Z,9.70
2023-05-02T07:23:49.342Z,9.64
2023-05-02T07:26:19.475Z,9.63
2023-05-02T07:28:47.741Z,9.66
2023-05-02T07:31:18.713Z,9.58
2023-05-02T07:33:47.594Z,9.61
2023-05-02T07:36:16.226Z,9.52
2023-05-02T07:38:46.141Z,9.47
2023-05-02T07:41:15.608Z,9.67
2023-05-02T07:43:46.552Z,9.63
2023-05-02T07:46:14.950Z,9.77
2023-05-02T07:48:43.235Z,9.95
2023-05-02T07:51:12.882Z,9.98
2023-05-02T07:53:42.038Z,10.24
2023-05-02T07:56:13.112Z,10.14
2023-05-02T07:58:41.804Z,10.14
2023-05-02T08:01:10.071Z,10.43
2023-05-02T08:03:38.826Z,10.33
2023-05-02T08:06:07.812Z,10.46
2023-05-02T08:08:36.167Z,9.86
2023-05-02T08:11:04.738Z,9.60
2023-05-02T08:13:34.664Z,9.59
2023-05-02T08:16:03.469Z,9.48
2023-05-02T08:18:31.703Z,9.25
2023-05-02T08:20:59.908Z,9.12
2023-05-02T08:23:28.062Z,9.17
2023-05-02T08:25:56.169Z,9.21
2023-05-02T08:28:24.681Z,9.25
2023-05-02T08:30:54.569Z,9.25
2023-05-02T08:33:22.955Z,9.21
2023-05-02T08:35:51.358Z,9.27
2023-05-02T08:38:19.974Z,9.33
2023-05-02T08:40:48.417Z,9.37
2023-05-02T08:43:18.381Z,9.37
2023-05-02T08:45:47.174Z,9.50
2023-05-02T08:48:19.967Z,9.68
2023-05-02T08:50:48.691Z,9.53
2023-05-02T08:53:18.554Z,9.57
2023-05-02T08:55:48.073Z,9.68
2023-05-02T08:58:17.761Z,9.77
2023-05-02T09:00:51.424Z,9.85
2023-05-02T09:03:30.996Z,9.93
2023-05-02T09:06:10.817Z,9.97
2023-05-02T09:08:39.693Z,10.00
2023-05-02T09:11:10.271Z,10.16
2023-05-02T09:13:40.465Z,10.28
2023-05-02T09:16:11.336Z,10.31
2023-05-02T09:18:43.397Z,10.53
2023-05-02T09:21:13.395Z,10.53
2023-05-02T09:23:44.021Z,10.59
2023-05-02T09:26:14.248Z,10.90
2023-05-02T09:28:44.060Z,11.13
2023-05-02T09:31:13.472Z,11.31
2023-05-02T09:33:45.773Z,11.51
2023-05-02T09:36:17.295Z,11.65
2023-05-02T09:38:47.112Z,11.40
2023-05-02T09:41:15.962Z,11.36
2023-05-02T09:43:45.032Z,11.83
2023-05-02T09:46:13.937Z,12.03
2023-05-02T09:48:59.765Z,11.99
2023-05-02T09:51:28.862Z,12.08
2023-05-02T09:53:57.361Z,12.29
2023-05-02T09:56:26.370Z,12.79
2023-05-02T09:59:15.494Z,12.67
2023-05-02T10:01:44.372Z,12.52
2023-05-02T10:04:17.338Z,12.91
2023-05-02T10:06:46.824Z,13.37
2023-05-02T10:09:20.585Z,13.80
2023-05-02T10:11:54.554Z,14.04
2023-05-02T10:14:27.803Z,14.24
2023-05-02T10:17:02.800Z,13.66
2023-05-02T10:19:41.519Z,13.61
2023-05-02T10:22:10.781Z,13.33
2023-05-02T10:24:42.377Z,13.50
2023-05-02T10:27:11.769Z,13.26
2023-05-02T10:29:42.609Z,13.32
2023-05-02T10:32:12.831Z,13.46
2023-05-02T10:34:43.456Z,13.13
2023-05-02T10:37:12.539Z,13.28
2023-05-02T10:39:41.140Z,13.09
2023-05-02T10:42:10.912Z,12.92
2023-05-02T10:44:42.466Z,13.06
2023-05-02T10:47:21.695Z,13.38
2023-05-02T10:49:57.405Z,13.45
2023-05-02T10:52:30.891Z,13.35
2023-05-02T10:55:20.110Z,13.48
2023-05-02T10:58:23.728Z,13.66
2023-05-02T11:00:52.531Z,13.79
2023-05-02T11:03:59.009Z,13.70
2023-05-02T11:06:30.871Z,13.97
2023-05-02T11:09:33.731Z,14.03
2023-05-02T11:12:05.029Z,14.01
2023-05-02T11:14:53.036Z,14.27
2023-05-02T11:17:21.734Z,14.37
2023-05-02T11:20:29.779Z,14.32
2023-05-02T11:23:02.783Z,14.05
2023-05-02T11:25:36.707Z,14.01
2023-05-02T11:28:07.743Z,14.16
2023-05-02T11:30:44.035Z,14.58
2023-05-02T11:33:20.588Z,14.93
2023-05-02T11:35:51.401Z,15.35
2023-05-02T11:38:23.165Z,15.45
2023-05-02T11:40:54.182Z,15.13
2023-05-02T11:43:25.271Z,15.36
2023-05-02T11:45:55.195Z,15.33
2023-05-02T11:48:27.433Z,15.44
2023-05-02T11:50:58.116Z,15.81
2023-05-02T11:53:30.160Z,15.86
2023-05-02T11:56:00.590Z,15.71
2023-05-02T11:58:32.832Z,15.28
2023-05-02T12:01:15.459Z,15.06
2023-05-02T12:03:45.157Z,14.72
2023-05-02T12:06:15.876Z,14.89
2023-05-02T12:08:46.881Z,14.86
2023-05-02T12:11:17.204Z,14.78
2023-05-02T12:13:50.898Z,14.39
2023-05-02T12:16:20.466Z,14.36
2023-05-02T12:18:49.921Z,14.35
2023-05-02T12:21:22.365Z,14.15
2023-05-02T12:23:52.219Z,14.01
2023-05-02T12:26:22.533Z,14.25
2023-05-02T12:28:52.736Z,14.64
2023-05-02T12:31:23.424Z,15.18
2023-05-02T12:33:57.690Z,15.61
2023-05-02T12:36:28.814Z,15.88
2023-05-02T12:39:01.609Z,15.71
2023-05-02T12:41:34.439Z,15.59
2023-05-02T12:44:03.738Z,15.56
2023-05-02T12:46:33.053Z,15.22
2023-05-02T12:49:05.950Z,15.13
2023-05-02T12:51:35.123Z,14.65
2023-05-02T12:54:06.031Z,14.33
2023-05-02T12:56:40.761Z,14.01
2023-05-02T12:59:09.725Z,13.94
2023-05-02T13:01:38.508Z,13.27
2023-05-02T13:04:08.561Z,12.99
2023-05-02T13:06:38.300Z,12.56
2023-05-02T13:09:09.056Z,12.63
2023-05-02T13:11:38.520Z,12.56
2023-05-02T13:14:07.573Z,12.65
2023-05-02T13:16:37.512Z,12.53
2023-05-02T13:19:06.848Z,12.17
2023-05-02T13:21:35.379Z,12.26
2023-05-02T13:24:04.403Z,12.12
2023-05-02T13:26:34.460Z,11.98
2023-05-02T13:29:02.709Z,11.76
2023-05-02T13:31:30.848Z,11.82
2023-05-02T13:33:59.063Z,11.80
2023-05-02T13:36:27.301Z,11.65
2023-05-02T13:38:55.648Z,11.74
2023-05-02T13:41:25.022Z,11.83
2023-05-02T13:43:55.673Z,11.81
2023-05-02T13:46:24.171Z,11.70
2023-05-02T13:48:52.472Z,11.64
2023-05-02T13:51:20.642Z,11.36
2023-05-02T13:53:49.034Z,11.24
2023-05-02T13:56:17.519Z,11.03
2023-05-02T13:58:45.984Z,11.11
2023-05-02T14:01:16.600Z,11.33
2023-05-02T14:03:45.132Z,11.63
2023-05-02T14:06:13.732Z,11.96
2023-05-02T14:08:42.231Z,12.27
2023-05-02T14:11:11.711Z,12.58
2023-05-02T14:13:41.665Z,12.80
2023-05-02T14:16:10.286Z,13.12
2023-05-02T14:18:41.365Z,12.95
2023-05-02T14:21:09.809Z,12.81
2023-05-02T14:23:39.370Z,12.84
2023-05-02T14:26:07.940Z,12.79
2023-05-02T14:28:38.449Z,13.08
2023-05-02T14:31:08.382Z,12.82
2023-05-02T14:33:36.873Z,12.92
2023-05-02T14:36:06.868Z,13.10
2023-05-02T14:38:35.153Z,13.29
2023-05-02T14:41:04.094Z,13.25
2023-05-02T14:43:32.320Z,13.32
2023-05-02T14:46:01.310Z,13.38
2023-05-02T14:48:30.170Z,13.54
2023-05-02T14:51:00.963Z,13.83
2023-05-02T14:53:30.991Z,13.73
2023-05-02T14:55:59.267Z,13.82
2023-05-02T14:58:29.179Z,13.80
2023-05-02T15:00:58.327Z,13.92
2023-05-02T15:03:27.154Z,14.12
2023-05-02T15:05:55.969Z,14.03
2023-05-02T15:08:24.143Z,14.17
2023-05-02T15:10:55.947Z,14.26
2023-05-02T15:13:25.222Z,14.39
2023-05-02T15:15:54.486Z,14.43
2023-05-02T15:18:22.944Z,14.54
2023-05-02T15:20:51.429Z,14.57
2023-05-02T15:23:19.957Z,14.63
2023-05-02T15:25:49.017Z,14.57
2023-05-02T15:28:19.246Z,14.67
2023-05-02T15:30:49.204Z,14.89
2023-05-02T15:33:17.397Z,14.94
2023-05-02T15:35:55.152Z,15.26
2023-05-02T15:38:24.523Z,15.25
2023-05-02T15:40:56.587Z,14.85
2023-05-02T15:43:27.142Z,15.11
2023-05-02T15:45:56.769Z,15.27
2023-05-02T15:48:28.165Z,15.74
2023-05-02T15:50:57.040Z,16.70
2023-05-02T15:53:26.215Z,17.56
2023-05-02T15:55:55.011Z,18.42
2023-05-02T15:58:23.334Z,18.02
2023-05-02T16:00:56.415Z,19.43
2023-05-02T16:03:25.541Z,18.25
2023-05-02T16:05:54.312Z,19.27
2023-05-02T16:08:22.913Z,19.08
2023-05-02T16:10:51.926Z,19.33
2023-05-02T16:13:20.810Z,19.57
2023-05-02T16:15:49.710Z,19.47
2023-05-02T16:18:20.065Z,19.19
2023-05-02T16:20:50.383Z,19.31
2023-05-02T16:23:19.448Z,20.09
2023-05-02T16:25:47.824Z,20.23
2023-05-02T16:28:16.580Z,20.85
2023-05-02T16:30:45.267Z,19.66
2023-05-02T16:33:14.316Z,19.63
2023-05-02T16:35:44.637Z,19.52
2023-05-02T16:38:13.357Z,19.35
2023-05-02T16:40:41.855Z,19.51
2023-05-02T16:43:10.250Z,17.52
2023-05-02T16:45:38.836Z,16.03
2023-05-02T16:48:07.664Z,16.05
2023-05-02T16:50:35.814Z,15.57
2023-05-02T16:53:07.091Z,15.55
2023-05-02T16:55:35.250Z,15.42
2023-05-02T16:58:03.782Z,15.42
2023-05-02T17:00:33.869Z,15.47
2023-05-02T17:03:04.575Z,15.28
2023-05-02T17:05:34.049Z,15.09
2023-05-02T17:08:02.524Z,14.90
2023-05-02T17:10:32.870Z,14.75
2023-05-02T17:13:03.335Z,14.64
2023-05-02T17:15:32.188Z,14.70
2023-05-02T17:18:00.667Z,14.55
2023-05-02T17:20:29.283Z,14.46
2023-05-02T17:23:01.143Z,14.40
2023-05-02T17:25:32.579Z,14.39
2023-05-02T17:28:02.205Z,14.26
2023-05-02T17:30:30.922Z,14.12
2023-05-02T17:32:59.431Z,14.00
2023-05-02T17:35:28.506Z,14.04
2023-05-02T17:37:56.937Z,13.87
2023-05-02T17:40:27.327Z,13.95
2023-05-02T17:42:59.068Z,13.92
2023-05-02T17:45:30.519Z,13.76
2023-05-02T17:48:00.842Z,13.68
2023-05-02T17:50:30.447Z,13.58
2023-05-02T17:52:59.916Z,13.40
2023-05-02T17:55:28.468Z,13.23
2023-05-02T17:57:59.613Z,13.21
2023-05-02T18:00:28.380Z,13.21
2023-05-02T18:02:56.751Z,13.25
2023-05-02T18:05:26.823Z,13.27
2023-05-02T18:07:56.010Z,13.24
2023-05-02T18:10:24.643Z,13.23
2023-05-02T18:12:53.249Z,13.10
2023-05-02T18:15:23.805Z,12.88
2023-05-02T18:17:52.931Z,12.89
2023-05-02T18:20:22.269Z,12.75
2023-05-02T18:22:51.585Z,12.63
2023-05-02T18:25:21.983Z,12.50
2023-05-02T18:27:51.508Z,12.46
2023-05-02T18:30:21.533Z,12.42
2023-05-02T18:32:52.518Z,12.24
2023-05-02T18:35:21.992Z,12.24
2023-05-02T18:37:51.899Z,12.05
2023-05-02T18:40:20.598Z,11.98
2023-05-02T18:42:49.081Z,11.86
2023-05-02T18:45:18.211Z,11.75
2023-05-02T18:47:46.642Z,11.65
2023-05-02T18:50:16.895Z,11.59
2023-05-02T18:52:45.630Z,11.44
2023-05-02T18:55:14.231Z,11.38
2023-05-02T18:57:45.420Z,11.36
2023-05-02T19:00:14.778Z,11.31
2023-05-02T19:02:43.834Z,11.24
2023-05-02T19:05:12.877Z,11.13
2023-05-02T19:07:43.024Z,11.05
2023-05-02T19:10:12.655Z,11.05
2023-05-02T19:12:41.904Z,11.01
2023-05-02T19:15:12.514Z,10.86
2023-05-02T19:17:40.940Z,10.93
2023-05-02T19:20:11.453Z,10.95
2023-05-02T19:22:41.228Z,10.84
2023-05-02T19:25:13.296Z,10.87
2023-05-02T19:27:42.246Z,10.80
2023-05-02T19:30:14.673Z,10.74
2023-05-02T19:32:43.792Z,10.74
2023-05-02T19:35:13.699Z,10.85
2023-05-02T19:37:44.310Z,10.88
2023-05-02T19:40:16.599Z,10.88
2023-05-02T19:42:44.972Z,10.84
2023-05-02T19:45:14.382Z,10.85
2023-05-02T19:47:46.087Z,10.81
2023-05-02T19:50:14.471Z,10.72
2023-05-02T19:52:44.643Z,10.59
2023-05-02T19:55:16.283Z,10.57
2023-05-02T19:57:46.036Z,10.59
2023-05-02T20:00:16.243Z,10.68
2023-05-02T20:02:45.105Z,10.71
2023-05-02T20:05:13.685Z,10.67
2023-05-02T20:07:42.477Z,10.68
2023-05-02T20:10:11.888Z,10.58
2023-05-02T20:12:45.105Z,10.66
2023-05-02T20:15:14.829Z,10.68
2023-05-02T20:17:43.921Z,10.88
2023-05-02T20:20:13.499Z,10.80
2023-05-02T20:22:41.771Z,10.94
2023-05-02T20:25:19.638Z,10.89
2023-05-02T20:27:50.058Z,10.75
2023-05-02T20:30:20.662Z,10.81
2023-05-02T20:32:49.035Z,10.71
2023-05-02T20:35:18.416Z,10.74
2023-05-02T20:37:47.058Z,10.78
2023-05-02T20:40:15.366Z,10.72
2023-05-02T20:42:45.514Z,10.64
2023-05-02T20:45:20.518Z,10.62
2023-05-02T20:47:49.342Z,10.53
2023-05-02T20:50:19.168Z,10.44
2023-05-02T20:52:47.525Z,10.48
2023-05-02T20:55:18.303Z,10.46
2023-05-02T20:57:51.218Z,10.39
2023-05-02T21:00:23.481Z,10.38
2023-05-02T21:02:52.463Z,10.31
2023-05-02T21:05:21.222Z,10.22
2023-05-02T21:07:49.715Z,10.16
2023-05-02T21:10:18.089Z,10.17
2023-05-02T21:12:46.632Z,10.25
2023-05-02T21:15:15.470Z,10.12
2023-05-02T21:17:45.158Z,10.02
2023-05-02T21:20:14.489Z,9.92
2023-05-02T21:22:43.475Z,9.95
2023-05-02T21:25:12.353Z,9.90
2023-05-02T21:27:40.862Z,9.83
2023-05-02T21:30:10.430Z,9.77
2023-05-02T21:32:38.833Z,9.59
2023-05-02T21:35:10.091Z,9.52
2023-05-02T21:37:38.692Z,9.41
2023-05-02T21:40:08.679Z,9.36
2023-05-02T21:42:36.866Z,9.35
2023-05-02T21:45:05.551Z,9.28
2023-05-02T21:47:33.929Z,9.23
2023-05-02T21:50:02.758Z,9.25
2023-05-02T21:52:33.261Z,9.30
2023-05-02T21:55:01.893Z,9.34
2023-05-02T21:57:30.478Z,9.24
2023-05-02T21:59:59.088Z,9.37
2023-05-02T22:02:28.502Z,9.31
2023-05-02T22:04:57.781Z,9.25
2023-05-02T22:07:26.311Z,9.28
2023-05-02T22:09:56.616Z,9.17
2023-05-02T22:12:27.839Z,9.07
2023-05-02T22:14:56.409Z,9.07
2023-05-02T22:17:24.810Z,9.08
2023-05-02T22:19:53.038Z,9.10
2023-05-02T22:22:21.688Z,9.04
2023-05-02T22:24:50.110Z,8.95
2023-05-02T22:27:20.081Z,8.90
2023-05-02T22:29:49.500Z,8.84
2023-05-02T22:32:19.138Z,8.91
2023-05-02T22:34:47.173Z,8.89
2023-05-02T22:37:15.559Z,8.77
2023-05-02T22:39:44.928Z,8.71
2023-05-02T22:42:14.236Z,8.75
2023-05-02T22:44:53.646Z,8.67
2023-05-02T22:47:23.090Z,8.63
2023-05-02T22:49:52.926Z,8.70
2023-05-02T22:52:21.425Z,8.71
2023-05-02T22:54:49.649Z,8.76
2023-05-02T22:57:17.960Z,8.77
2023-05-02T22:59:47.979Z,8.75
2023-05-02T23:02:16.160Z,8.83
2023-05-02T23:04:44.749Z,8.82
2023-05-02T23:07:13.124Z,8.80
2023-05-02T23:09:42.126Z,8.76
2023-05-02T23:12:10.213Z,8.72
2023-05-02T23:14:38.275Z,8.63
2023-05-02T23:17:08.478Z,8.69
2023-05-02T23:19:37.009Z,8.64
2023-05-02T23:22:05.590Z,8.60
2023-05-02T23:24:33.912Z,8.54
2023-05-02T23:27:02.615Z,8.50
2023-05-02T23:29:31.023Z,8.52
2023-05-02T23:31:59.661Z,8.38
2023-05-02T23:34:29.527Z,8.30
2023-05-02T23:36:57.662Z,8.28
2023-05-02T23:39:26.096Z,8.31
2023-05-02T23:41:54.477Z,8.21
2023-05-02T23:44:23.217Z,8.30
2023-05-02T23:46:52.123Z,8.22
2023-05-02T23:49:20.636Z,8.08
2023-05-02T23:51:50.588Z,8.14
2023-05-02T23:54:19.145Z,8.11
2023-05-02T23:56:48.143Z,8.08
2023-05-02T23:59:16.528Z,8.00
